M I D A S
Marine Information and Data Acquisition System
Tripno 149 of the Zeeleeuw from 2001-08-14 05:36:19 to 2001-08-14 20:05:00
Back to CruiseResearch ActivitiesStationsMapUnderway DataData graphs

EquipmentUnitsComments
TimeDGPSUTC
LatitudeDGPSDM.mWGS84
LongitudeDGPSDM.mWGS84
SpeedMeteo Stationm/sRelative wind speed
DirectionMeteo StationdegRelative wind direction
TemperatureMeteo Stationdeg CelciusAir temperature
PressureMeteo StationPaAtmospheric pressure
HumidityMeteo Station%Relative humidity
Missing or incorrect values are displayed as -999
Metereological data collected by the RV Zeeleeuw from 2001-08-14 05:36:19 to 2001-08-14 20:05:00
                                                                                    Next 1000 lines
Time Latitude Longitude Speed Direction Temperature Pressure Humidity
2001-08-14 05:36:29 51°13.676 2°55.919 1.1 308 15.3 101440 97
2001-08-14 05:36:35 51°13.676 2°55.92 1.1 323 15.3 101440 97
2001-08-14 05:36:39 51°13.676 2°55.92 1.2 317 15.3 101440 97
2001-08-14 05:36:45 51°13.676 2°55.92 2 326 15.3 101440 97
2001-08-14 05:36:50 51°13.676 2°55.92 1.8 320 15.3 101440 97
2001-08-14 05:36:55 51°13.676 2°55.92 2 308 15.3 101440 97
2001-08-14 05:36:59 51°13.676 2°55.92 2 279 15.3 101440 97
2001-08-14 05:37:05 51°13.676 2°55.921 1.4 283 15.3 101440 97
2001-08-14 05:37:09 51°13.676 2°55.921 1.9 292 15.3 101440 97
2001-08-14 05:37:15 51°13.676 2°55.921 1.6 277 15.3 101440 97
2001-08-14 05:37:19 51°13.676 2°55.921 1.1 288 15.3 101440 97
2001-08-14 05:37:25 51°13.675 2°55.922 1.4 320 15.3 101440 97
2001-08-14 05:37:29 51°13.675 2°55.922 1.8 323 15.3 101440 97
2001-08-14 06:47:13 51°13.679 2°55.927 1.3 322 15.2 101450 97
2001-08-14 06:47:17 51°13.679 2°55.927 1.9 314 15.2 101450 97
2001-08-14 06:47:21 51°13.679 2°55.927 2.4 330 15.2 101460 97
2001-08-14 06:47:27 51°13.679 2°55.926 2.3 330 15.2 101460 97
2001-08-14 06:47:33 51°13.677 2°55.925 1.5 302 15.2 101450 97
2001-08-14 06:47:37 51°13.677 2°55.925 1.9 310 15.2 101450 97
2001-08-14 06:47:43 51°13.678 2°55.925 1.4 289 15.2 101460 97
2001-08-14 06:47:47 51°13.678 2°55.925 1.2 299 15.2 101460 97
2001-08-14 06:47:53 51°13.678 2°55.925 1.7 257 15.2 101450 97
2001-08-14 06:47:57 51°13.678 2°55.925 1.2 300 15.2 101450 97
2001-08-14 06:48:03 51°13.678 2°55.924 1.6 275 15.2 101460 97
2001-08-14 06:48:07 51°13.678 2°55.924 1.7 264 15.2 101460 97
2001-08-14 06:48:12 51°13.678 2°55.924 1.1 282 15.2 101460 97
2001-08-14 06:48:17 51°13.677 2°55.924 1.4 261 15.2 101460 97
2001-08-14 06:48:23 51°13.677 2°55.924 1.6 273 15.2 101450 97
2001-08-14 06:48:27 51°13.677 2°55.924 1.8 277 15.2 101450 97
2001-08-14 06:48:33 51°13.678 2°55.924 2.6 271 15.2 101460 97
2001-08-14 06:48:37 51°13.678 2°55.924 1.7 291 15.2 101460 97
2001-08-14 06:48:43 51°13.678 2°55.924 1.4 292 15.2 101460 97
2001-08-14 06:48:48 51°13.678 2°55.924 1.9 255 15.2 101460 97
2001-08-14 06:48:53 51°13.678 2°55.924 2 249 15.2 101460 97
2001-08-14 06:48:57 51°13.678 2°55.924 1.8 249 15.2 101460 97
2001-08-14 06:49:03 51°13.678 2°55.924 1.7 239 15.2 101460 97
2001-08-14 06:49:07 51°13.678 2°55.924 1.7 225 15.2 101460 97
2001-08-14 06:49:13 51°13.678 2°55.924 1.4 236 15.2 101460 97
2001-08-14 06:49:17 51°13.678 2°55.924 1.7 237 15.2 101460 97
2001-08-14 06:49:23 51°13.678 2°55.924 1.8 249 15.2 101460 98
2001-08-14 06:49:27 51°13.678 2°55.924 1.7 256 15.2 101460 98
2001-08-14 06:49:32 51°13.678 2°55.924 1.5 241 15.2 101460 98
2001-08-14 06:49:37 51°13.678 2°55.923 1.4 246 15.2 101460 98
2001-08-14 06:49:41 51°13.678 2°55.923 1.5 250 15.2 101460 98
2001-08-14 06:49:47 51°13.678 2°55.923 1.8 244 15.2 101460 98
2001-08-14 06:49:53 51°13.678 2°55.923 1.6 248 15.2 101460 98
2001-08-14 06:49:57 51°13.678 2°55.923 1.5 239 15.2 101460 98
2001-08-14 06:50:03 51°13.678 2°55.923 1.4 235 15.2 101460 97
2001-08-14 06:50:07 51°13.678 2°55.923 1.4 230 15.2 101460 97
2001-08-14 06:50:13 51°13.678 2°55.923 1.2 231 15.2 101450 97
2001-08-14 06:50:17 51°13.678 2°55.923 1.1 230 15.2 101450 97
2001-08-14 06:50:23 51°13.678 2°55.923 0.8 231 15.2 101460 97
2001-08-14 06:50:27 51°13.678 2°55.923 1 228 15.2 101460 97
2001-08-14 06:50:33 51°13.678 2°55.923 1.1 232 15.1 101460 97
2001-08-14 06:50:37 51°13.678 2°55.923 0.9 232 15.1 101460 97
2001-08-14 06:50:43 51°13.678 2°55.923 1 232 15.1 101460 97
2001-08-14 06:50:47 51°13.678 2°55.923 1.1 229 15.1 101460 97
2001-08-14 06:50:53 51°13.678 2°55.923 1.1 234 15.1 101460 97
2001-08-14 06:50:57 51°13.678 2°55.923 1.6 275 15.1 101460 97
2001-08-14 06:51:03 51°13.678 2°55.923 1.5 275 15.1 101450 97
2001-08-14 06:51:07 51°13.678 2°55.923 1.1 276 15.1 101450 97
2001-08-14 06:51:13 51°13.678 2°55.923 0.7 258 15.1 101460 97
2001-08-14 06:51:18 51°13.678 2°55.923 0.7 235 15.1 101460 97
2001-08-14 06:51:23 51°13.678 2°55.923 0.7 225 15.1 101460 97
2001-08-14 06:51:28 51°13.678 2°55.923 0.8 225 15.1 101460 97
2001-08-14 06:51:33 51°13.678 2°55.923 1 225 15.1 101450 97
2001-08-14 06:51:37 51°13.678 2°55.923 1.1 250 15.1 101450 97
2001-08-14 06:51:41 51°13.678 2°55.923 1.1 296 15.1 101460 97
2001-08-14 06:51:48 51°13.678 2°55.923 1.2 292 15.1 101460 97
2001-08-14 06:51:53 51°13.678 2°55.923 1.6 275 15.1 101450 97
2001-08-14 06:51:57 51°13.678 2°55.923 1.3 298 15.1 101450 97
2001-08-14 06:52:03 51°13.678 2°55.923 1.5 280 15.1 101450 97
2001-08-14 06:52:07 51°13.678 2°55.923 1.9 271 15.1 101450 97
2001-08-14 06:52:13 51°13.678 2°55.923 2.3 273 15.1 101450 97
2001-08-14 06:52:17 51°13.678 2°55.923 1.5 263 15.1 101450 97
2001-08-14 06:52:23 51°13.678 2°55.923 1.5 240 15.1 101450 97
2001-08-14 06:52:28 51°13.678 2°55.923 1.5 259 15.1 101450 97
2001-08-14 06:52:33 51°13.678 2°55.923 1.5 259 15.1 101460 97
2001-08-14 06:52:37 51°13.678 2°55.923 1.2 258 15.1 101460 97
2001-08-14 06:52:41 51°13.678 2°55.923 1.1 242 15.1 101460 97
2001-08-14 06:52:47 51°13.678 2°55.924 1.9 268 15.1 101460 97
2001-08-14 06:52:53 51°13.678 2°55.924 1.5 239 15.1 101460 97
2001-08-14 06:52:57 51°13.677 2°55.924 1.2 238 15.1 101460 97
2001-08-14 06:53:03 51°13.677 2°55.923 1.1 233 15.1 101450 97
2001-08-14 06:53:07 51°13.677 2°55.923 0.9 230 15.1 101450 97
2001-08-14 06:53:13 51°13.677 2°55.924 1 217 15.1 101450 97
2001-08-14 06:53:17 51°13.677 2°55.924 1 203 15.1 101450 97
2001-08-14 06:53:23 51°13.677 2°55.924 1.2 196 15.1 101450 97
2001-08-14 06:53:27 51°13.677 2°55.924 0.6 200 15.1 101450 97
2001-08-14 06:53:33 51°13.677 2°55.924 0.5 206 15.1 101460 97
2001-08-14 06:53:37 51°13.677 2°55.924 0.6 232 15.1 101460 97
2001-08-14 06:53:43 51°13.677 2°55.924 0.7 223 15.1 101450 97
2001-08-14 06:53:47 51°13.676 2°55.924 0.2 209 15.1 101450 97
2001-08-14 06:53:53 51°13.676 2°55.924 0.2 209 15.1 101450 97
2001-08-14 06:53:57 51°13.676 2°55.924 0.2 209 15.1 101450 97
2001-08-14 06:54:03 51°13.676 2°55.924 0.2 216 15.1 101450 97
2001-08-14 06:54:07 51°13.676 2°55.924 0.2 182 15.1 101450 97
2001-08-14 06:54:13 51°13.676 2°55.924 0.2 89 15.1 101460 97
2001-08-14 06:54:17 51°13.676 2°55.924 0.5 349 15.1 101460 97
2001-08-14 06:54:23 51°13.676 2°55.924 0.6 328 15 101460 97
2001-08-14 06:54:27 51°13.676 2°55.924 0.4 305 15 101460 97
2001-08-14 06:54:33 51°13.676 2°55.924 0.6 310 15.1 101450 97
2001-08-14 06:54:37 51°13.676 2°55.924 0.5 316 15.1 101450 97
2001-08-14 06:54:43 51°13.676 2°55.924 0.6 318 15.1 101450 97
2001-08-14 06:54:47 51°13.676 2°55.924 0.6 273 15.1 101450 97
2001-08-14 06:54:53 51°13.676 2°55.924 0.6 287 15.1 101460 97
2001-08-14 06:54:57 51°13.676 2°55.924 0.6 304 15.1 101460 97
2001-08-14 06:55:03 51°13.676 2°55.924 0.9 304 15.1 101450 97
2001-08-14 06:55:07 51°13.676 2°55.924 1.1 278 15.1 101450 97
2001-08-14 06:55:13 51°13.676 2°55.924 0.8 323 15.1 101450 97
2001-08-14 06:55:17 51°13.676 2°55.924 0.9 314 15.1 101450 97
2001-08-14 06:55:23 51°13.676 2°55.924 1 306 15.1 101460 97
2001-08-14 06:55:27 51°13.676 2°55.924 0.8 304 15.1 101460 97
2001-08-14 06:55:33 51°13.676 2°55.924 0.8 303 15.1 101450 97
2001-08-14 06:55:37 51°13.676 2°55.923 0.8 314 15.1 101450 97
2001-08-14 06:55:43 51°13.676 2°55.924 0.7 314 15.1 101450 97
2001-08-14 06:55:48 51°13.676 2°55.924 0.8 300 15.1 101450 97
2001-08-14 06:55:53 51°13.676 2°55.924 0.8 289 15.1 101450 97
2001-08-14 06:55:57 51°13.676 2°55.924 1.2 318 15.1 101450 97
2001-08-14 06:56:01 51°13.676 2°55.924 1.6 337 15.1 101450 97
2001-08-14 06:56:07 51°13.676 2°55.924 1.7 328 15.1 101450 97
2001-08-14 06:56:13 51°13.676 2°55.925 1.8 343 15.1 101460 97
2001-08-14 06:56:17 51°13.676 2°55.925 1.8 321 15.1 101460 97
2001-08-14 06:56:23 51°13.676 2°55.925 1.1 310 15.1 101460 97
2001-08-14 06:56:28 51°13.675 2°55.926 1.2 309 15.1 101460 97
2001-08-14 06:56:33 51°13.675 2°55.926 1.8 299 15.1 101460 97
2001-08-14 06:56:37 51°13.676 2°55.926 1.5 302 15.1 101460 97
2001-08-14 06:56:43 51°13.676 2°55.926 1.7 312 15.1 101460 97
2001-08-14 06:56:47 51°13.676 2°55.926 1.9 307 15.1 101460 97
2001-08-14 06:56:53 51°13.676 2°55.926 2 306 15.1 101460 97
2001-08-14 06:56:57 51°13.676 2°55.926 1.5 316 15.1 101460 97
2001-08-14 06:57:03 51°13.676 2°55.926 1.9 309 15.1 101460 97
2001-08-14 06:57:07 51°13.676 2°55.926 1.4 303 15.1 101460 97
2001-08-14 06:57:13 51°13.676 2°55.926 1.8 306 15.1 101460 97
2001-08-14 06:57:17 51°13.676 2°55.926 1.3 296 15.1 101460 97
2001-08-14 06:57:23 51°13.676 2°55.926 1.4 305 15.1 101460 97
2001-08-14 06:57:27 51°13.676 2°55.926 1.2 289 15.1 101460 97
2001-08-14 06:57:33 51°13.676 2°55.926 1.9 320 15.1 101460 97
2001-08-14 06:57:37 51°13.676 2°55.926 1.7 267 15.1 101460 97
2001-08-14 06:57:41 51°13.676 2°55.926 1.3 300 15.1 101460 97
2001-08-14 06:57:47 51°13.676 2°55.926 1.2 294 15.1 101460 97
2001-08-14 06:57:53 51°13.675 2°55.925 1 294 15.1 101460 97
2001-08-14 06:57:57 51°13.675 2°55.925 1.7 324 15.1 101460 97
2001-08-14 06:58:03 51°13.676 2°55.926 1.4 322 15.1 101460 97
2001-08-14 06:58:07 51°13.676 2°55.926 1.3 326 15.1 101460 97
2001-08-14 06:58:12 51°13.676 2°55.926 1.4 308 15.1 101460 97
2001-08-14 06:58:17 51°13.676 2°55.926 1.6 317 15.1 101460 97
2001-08-14 06:58:21 51°13.676 2°55.926 1.4 327 15.1 101460 97
2001-08-14 06:58:27 51°13.676 2°55.926 1.5 327 15.1 101460 97
2001-08-14 06:58:33 51°13.676 2°55.926 1.4 323 15.1 101460 97
2001-08-14 06:58:37 51°13.676 2°55.926 1.7 339 15.1 101460 97
2001-08-14 06:58:43 51°13.676 2°55.926 1.8 337 15.1 101460 98
2001-08-14 06:58:47 51°13.676 2°55.926 1.1 341 15.1 101460 98
2001-08-14 06:58:53 51°13.676 2°55.927 1.4 338 15.1 101460 97
2001-08-14 06:58:57 51°13.676 2°55.927 1.3 332 15.1 101460 97
2001-08-14 06:59:01 51°13.676 2°55.927 1.7 333 15.1 101460 97
2001-08-14 06:59:07 51°13.676 2°55.927 1.4 315 15.1 101460 97
2001-08-14 06:59:13 51°13.676 2°55.927 1.1 318 15.2 101460 97
2001-08-14 06:59:17 51°13.676 2°55.927 1 316 15.2 101460 97
2001-08-14 06:59:23 51°13.676 2°55.927 1.2 312 15.2 101460 97
2001-08-14 06:59:27 51°13.676 2°55.927 0.9 325 15.2 101460 97
2001-08-14 06:59:31 51°13.676 2°55.927 1 333 15.2 101450 97
2001-08-14 06:59:37 51°13.675 2°55.927 1.3 323 15.2 101450 97
2001-08-14 06:59:43 51°13.675 2°55.927 0.9 322 15.1 101460 97
2001-08-14 06:59:47 51°13.675 2°55.928 0.8 321 15.1 101460 97
2001-08-14 06:59:53 51°13.675 2°55.928 0.9 320 15.1 101460 97
2001-08-14 06:59:57 51°13.675 2°55.928 0.8 311 15.1 101460 97
2001-08-14 07:00:01 51°13.675 2°55.928 0.9 329 15.1 101460 97
2001-08-14 07:00:07 51°13.675 2°55.928 1.2 327 15.1 101460 97
2001-08-14 07:00:13 51°13.675 2°55.928 1.5 325 15.1 101460 97
2001-08-14 07:00:17 51°13.675 2°55.928 1.5 309 15.1 101460 97
2001-08-14 07:00:23 51°13.675 2°55.927 1.1 321 15.1 101460 97
2001-08-14 07:00:27 51°13.675 2°55.927 1.5 311 15.1 101460 97
2001-08-14 07:00:33 51°13.675 2°55.926 1.7 316 15.1 101460 97
2001-08-14 07:00:37 51°13.675 2°55.926 1.2 322 15.1 101460 97
2001-08-14 07:00:43 51°13.675 2°55.925 1.4 325 15.1 101460 97
2001-08-14 07:00:47 51°13.676 2°55.924 1.3 313 15.1 101460 97
2001-08-14 07:00:52 51°13.676 2°55.923 1.3 309 15.1 101460 97
2001-08-14 07:00:57 51°13.677 2°55.922 1.4 304 15.1 101460 97
2001-08-14 07:01:03 51°13.677 2°55.919 1.4 301 15.1 101460 97
2001-08-14 07:01:07 51°13.678 2°55.917 1.4 292 15.1 101460 97
2001-08-14 07:01:13 51°13.678 2°55.914 1.2 297 15.1 101460 97
2001-08-14 07:01:17 51°13.679 2°55.912 1.1 294 15.1 101460 97
2001-08-14 07:01:23 51°13.68 2°55.908 1.3 293 15.1 101460 97
2001-08-14 07:01:29 51°13.681 2°55.903 1.4 276 15.1 101460 97
2001-08-14 07:01:33 51°13.682 2°55.899 1.4 261 15.1 101460 97
2001-08-14 07:01:39 51°13.683 2°55.893 1.5 234 15.1 101460 97
2001-08-14 07:01:43 51°13.684 2°55.889 1.6 226 15.1 101460 97
2001-08-14 07:01:48 51°13.685 2°55.884 1.4 223 15.1 101460 97
2001-08-14 07:01:53 51°13.686 2°55.878 1.2 221 15.1 101460 97
2001-08-14 07:01:59 51°13.686 2°55.87 1.2 227 15.1 101460 97
2001-08-14 07:02:03 51°13.687 2°55.865 1.2 240 15.1 101470 97
2001-08-14 07:02:09 51°13.688 2°55.857 1.7 240 15.1 101470 97
2001-08-14 07:02:13 51°13.688 2°55.851 1.5 232 15.1 101460 97
2001-08-14 07:02:19 51°13.689 2°55.843 1.6 232 15.1 101460 97
2001-08-14 07:02:23 51°13.689 2°55.837 1.9 235 15.1 101460 97
2001-08-14 07:02:29 51°13.689 2°55.829 1.5 221 15.1 101460 97
2001-08-14 07:02:33 51°13.689 2°55.822 1.6 230 15.1 101460 97
2001-08-14 07:02:39 51°13.69 2°55.813 1.6 235 15.1 101460 97
2001-08-14 07:02:43 51°13.69 2°55.807 1.7 227 15.1 101460 97
2001-08-14 07:02:49 51°13.69 2°55.798 1.8 207 15.1 101460 97
2001-08-14 07:02:53 51°13.69 2°55.792 1.7 206 15.1 101460 97
2001-08-14 07:02:59 51°13.69 2°55.784 1.3 210 15.1 101460 97
2001-08-14 07:03:03 51°13.69 2°55.778 1.7 205 15.1 101460 97
2001-08-14 07:03:07 51°13.69 2°55.772 1.9 205 15.1 101460 97
2001-08-14 07:03:13 51°13.689 2°55.763 1.7 204 15.1 101470 97
2001-08-14 07:03:17 51°13.689 2°55.758 1.6 205 15.1 101470 97
2001-08-14 07:03:23 51°13.689 2°55.75 1.6 217 15.1 101470 97
2001-08-14 07:03:29 51°13.689 2°55.742 1.7 211 15.1 101470 97
2001-08-14 07:03:33 51°13.688 2°55.737 1.6 212 15.1 101460 97
2001-08-14 07:03:37 51°13.688 2°55.733 1.5 224 15.1 101460 97
2001-08-14 07:03:41 51°13.688 2°55.728 1.7 223 15.1 101460 97
2001-08-14 07:03:47 51°13.688 2°55.724 1.4 236 15.1 101460 97
2001-08-14 07:03:52 51°13.688 2°55.722 1.5 250 15.1 101460 97
2001-08-14 07:03:57 51°13.688 2°55.721 1.4 249 15.1 101460 97
2001-08-14 07:04:03 51°13.69 2°55.723 1.2 260 15.1 101470 97
2001-08-14 07:04:07 51°13.692 2°55.725 1.6 260 15.1 101470 97
2001-08-14 07:04:12 51°13.696 2°55.727 1.7 279 15.1 101460 97
2001-08-14 07:04:17 51°13.7 2°55.73 1.7 271 15.1 101460 97
2001-08-14 07:04:23 51°13.707 2°55.732 1.9 270 15.1 101470 97
2001-08-14 07:04:27 51°13.711 2°55.733 1 273 15.1 101470 97
2001-08-14 07:04:33 51°13.719 2°55.731 0.8 289 15.1 101460 97
2001-08-14 07:04:37 51°13.725 2°55.729 1 337 15.1 101460 97
2001-08-14 07:04:43 51°13.734 2°55.724 0.9 338 15.1 101470 97
2001-08-14 07:04:47 51°13.739 2°55.719 1.4 340 15.1 101470 97
2001-08-14 07:04:53 51°13.747 2°55.712 1.6 344 15.1 101460 97
2001-08-14 07:04:57 51°13.753 2°55.707 1.5 360 15.1 101460 97
2001-08-14 07:05:03 51°13.761 2°55.7 1.1 358 15.1 101460 97
2001-08-14 07:05:07 51°13.766 2°55.694 0.9 2 15.1 101460 97
2001-08-14 07:05:13 51°13.773 2°55.686 0.6 17 15.1 101460 97
2001-08-14 07:05:17 51°13.778 2°55.681 0.7 11 15.1 101460 97
2001-08-14 07:05:23 51°13.786 2°55.673 0.7 18 15.1 101460 97
2001-08-14 07:05:27 51°13.791 2°55.667 0.9 52 15.1 101460 97
2001-08-14 07:05:33 51°13.798 2°55.659 0.9 37 15.1 101470 97
2001-08-14 07:05:37 51°13.803 2°55.654 0.9 38 15.1 101470 97
2001-08-14 07:05:43 51°13.811 2°55.646 0.7 38 15.1 101470 97
2001-08-14 07:05:47 51°13.816 2°55.641 0.6 38 15.1 101470 97
2001-08-14 07:05:53 51°13.824 2°55.632 0.7 38 15.1 101470 97
2001-08-14 07:05:57 51°13.828 2°55.627 1.2 38 15.1 101470 97
2001-08-14 07:06:03 51°13.836 2°55.619 1 37 15.1 101460 98
2001-08-14 07:06:07 51°13.841 2°55.614 1.4 80 15.1 101460 98
2001-08-14 07:06:13 51°13.849 2°55.607 1.6 28 15.2 101460 97
2001-08-14 07:06:17 51°13.854 2°55.602 1.4 39 15.2 101460 97
2001-08-14 07:06:23 51°13.862 2°55.595 1.6 33 15.2 101460 97
2001-08-14 07:06:27 51°13.867 2°55.591 1.7 27 15.2 101460 97
2001-08-14 07:06:32 51°13.874 2°55.585 1.8 35 15.2 101470 98
2001-08-14 07:06:37 51°13.881 2°55.58 1.3 133 15.2 101470 98
2001-08-14 07:06:43 51°13.889 2°55.574 1 45 15.2 101470 98
2001-08-14 07:06:47 51°13.894 2°55.569 2.6 15 15.2 101470 98
2001-08-14 07:06:53 51°13.903 2°55.563 1.9 14 15.2 101460 98
2001-08-14 07:06:57 51°13.908 2°55.559 2.7 31 15.2 101460 98
2001-08-14 07:07:01 51°13.914 2°55.556 3 36 15.2 101460 98
2001-08-14 07:07:07 51°13.923 2°55.55 2.2 23 15.2 101460 98
2001-08-14 07:07:13 51°13.932 2°55.545 2.4 30 15.2 101460 98
2001-08-14 07:07:17 51°13.938 2°55.542 2.3 15 15.2 101460 98
2001-08-14 07:07:23 51°13.948 2°55.537 2.3 29 15.2 101460 98
2001-08-14 07:07:27 51°13.954 2°55.534 2.2 20 15.2 101460 98
2001-08-14 07:07:33 51°13.963 2°55.529 2 11 15.2 101470 98
2001-08-14 07:07:37 51°13.969 2°55.526 2.1 352 15.2 101470 98
2001-08-14 07:07:43 51°13.979 2°55.521 2.2 359 15.2 101460 98
2001-08-14 07:07:47 51°13.985 2°55.518 1.9 343 15.2 101460 98
2001-08-14 07:07:53 51°13.994 2°55.513 1.9 350 15.2 101460 98
2001-08-14 07:07:57 51°14 2°55.51 2.1 356 15.2 101460 98
2001-08-14 07:08:03 51°14.01 2°55.505 2 332 15.2 101460 98
2001-08-14 07:08:07 51°14.016 2°55.502 1.6 341 15.2 101460 98
2001-08-14 07:08:13 51°14.025 2°55.497 1.6 353 15.3 101470 98
2001-08-14 07:08:17 51°14.031 2°55.493 1.5 332 15.3 101470 98
2001-08-14 07:08:23 51°14.039 2°55.488 1.3 336 15.3 101460 98
2001-08-14 07:08:27 51°14.045 2°55.485 1 346 15.3 101460 98
2001-08-14 07:08:33 51°14.053 2°55.48 1.1 6 15.3 101470 98
2001-08-14 07:08:37 51°14.058 2°55.477 0.9 337 15.3 101470 98
2001-08-14 07:08:41 51°14.063 2°55.474 0.7 346 15.3 101470 98
2001-08-14 07:08:47 51°14.071 2°55.469 0.7 349 15.3 101470 98
2001-08-14 07:08:53 51°14.079 2°55.464 0.9 355 15.3 101470 98
2001-08-14 07:08:57 51°14.084 2°55.461 1 12 15.3 101470 98
2001-08-14 07:09:03 51°14.092 2°55.456 1.2 14 15.3 101470 98
2001-08-14 07:09:07 51°14.097 2°55.453 1.5 18 15.3 101470 98
2001-08-14 07:09:13 51°14.105 2°55.448 1.5 18 15.3 101470 98
2001-08-14 07:09:17 51°14.11 2°55.444 2.1 14 15.3 101470 98
2001-08-14 07:09:23 51°14.118 2°55.438 2.1 23 15.3 101470 98
2001-08-14 07:09:27 51°14.124 2°55.434 2 33 15.3 101470 98
2001-08-14 07:09:32 51°14.131 2°55.429 1.9 32 15.3 101470 97
2001-08-14 07:09:37 51°14.138 2°55.424 2.1 29 15.3 101470 97
2001-08-14 07:09:43 51°14.147 2°55.416 2.2 31 15.3 101470 98
2001-08-14 07:09:47 51°14.153 2°55.411 2.4 18 15.3 101470 98
2001-08-14 07:09:53 51°14.162 2°55.403 2.3 19 15.3 101470 98
2001-08-14 07:09:57 51°14.168 2°55.398 2.4 25 15.3 101470 98
2001-08-14 07:10:01 51°14.174 2°55.392 2.1 15 15.3 101470 97
2001-08-14 07:10:07 51°14.183 2°55.383 2.8 9 15.3 101470 97
2001-08-14 07:10:13 51°14.192 2°55.374 2.8 18 15.2 101470 97
2001-08-14 07:10:17 51°14.198 2°55.367 2.6 20 15.2 101470 97
2001-08-14 07:10:23 51°14.208 2°55.357 2.7 22 15.2 101470 98
2001-08-14 07:10:27 51°14.213 2°55.35 2.8 26 15.2 101470 98
2001-08-14 07:10:32 51°14.221 2°55.341 2.9 28 15.2 101470 97
2001-08-14 07:10:37 51°14.228 2°55.331 2.4 19 15.2 101470 97
2001-08-14 07:10:43 51°14.236 2°55.319 3.1 15 15.2 101470 97
2001-08-14 07:10:47 51°14.242 2°55.311 4 14 15.2 101470 97
2001-08-14 07:10:53 51°14.25 2°55.298 3.8 18 15.2 101470 97
2001-08-14 07:10:57 51°14.256 2°55.289 4.7 34 15.2 101470 97
2001-08-14 07:11:03 51°14.263 2°55.276 4.5 25 15.2 101470 97
2001-08-14 07:11:07 51°14.268 2°55.267 3.2 21 15.2 101470 97
2001-08-14 07:11:13 51°14.276 2°55.253 3.6 25 15.2 101470 97
2001-08-14 07:11:17 51°14.281 2°55.243 3.4 25 15.2 101470 97
2001-08-14 07:11:23 51°14.288 2°55.229 3.7 31 15.2 101470 97
2001-08-14 07:11:27 51°14.293 2°55.219 2.5 19 15.2 101470 97
2001-08-14 07:11:33 51°14.301 2°55.205 2.2 19 15.2 101470 97
2001-08-14 07:11:37 51°14.306 2°55.196 2.4 21 15.2 101470 97
2001-08-14 07:11:41 51°14.311 2°55.186 2.1 25 15.2 101470 97
2001-08-14 07:11:47 51°14.318 2°55.172 1.7 33 15.2 101470 97
2001-08-14 07:11:52 51°14.324 2°55.159 2 36 15.2 101470 97
2001-08-14 07:11:57 51°14.331 2°55.146 2.4 30 15.2 101470 97
2001-08-14 07:12:03 51°14.338 2°55.131 2.5 34 15.2 101470 97
2001-08-14 07:12:07 51°14.343 2°55.12 2.1 31 15.2 101470 97
2001-08-14 07:12:12 51°14.349 2°55.107 2.3 25 15.2 101470 97
2001-08-14 07:12:17 51°14.356 2°55.094 2.6 31 15.2 101470 97
2001-08-14 07:12:23 51°14.366 2°55.079 2.6 36 15.2 101470 97
2001-08-14 07:12:27 51°14.373 2°55.07 1.6 16 15.2 101470 97
2001-08-14 07:12:33 51°14.384 2°55.058 2.1 15 15.2 101470 97
2001-08-14 07:12:37 51°14.392 2°55.051 2.7 8 15.2 101470 97
2001-08-14 07:12:43 51°14.405 2°55.041 3.3 26 15.2 101470 97
2001-08-14 07:12:47 51°14.414 2°55.034 4.1 7 15.2 101470 97
2001-08-14 07:12:53 51°14.429 2°55.024 3.2 1 15.2 101470 97
2001-08-14 07:12:57 51°14.439 2°55.017 2.7 6 15.2 101470 97
2001-08-14 07:13:03 51°14.454 2°55.006 3.8 17 15.2 101470 97
2001-08-14 07:13:07 51°14.465 2°54.998 4.7 20 15.2 101470 97
2001-08-14 07:13:13 51°14.481 2°54.986 4.7 20 15.2 101460 97
2001-08-14 07:13:17 51°14.492 2°54.978 4.6 14 15.2 101460 97
2001-08-14 07:13:23 51°14.509 2°54.966 4.5 13 15.2 101470 97
2001-08-14 07:13:27 51°14.52 2°54.958 4.8 12 15.2 101470 97
2001-08-14 07:13:32 51°14.535 2°54.947 5.6 13 15.2 101460 97
2001-08-14 07:13:37 51°14.55 2°54.936 6.2 13 15.2 101460 97
2001-08-14 07:13:42 51°14.566 2°54.925 6.2 8 15.3 101460 97
2001-08-14 07:13:47 51°14.582 2°54.913 6.1 13 15.3 101460 97
2001-08-14 07:13:53 51°14.601 2°54.899 6.6 8 15.3 101460 98
2001-08-14 07:13:57 51°14.615 2°54.889 6.6 12 15.3 101460 98
2001-08-14 07:14:02 51°14.631 2°54.876 6.5 13 15.3 101460 98
2001-08-14 07:14:07 51°14.647 2°54.863 6.3 11 15.3 101460 98
2001-08-14 07:14:13 51°14.667 2°54.848 6.4 14 15.2 101460 97
2001-08-14 07:14:17 51°14.68 2°54.837 6.2 14 15.2 101460 97
2001-08-14 07:14:23 51°14.7 2°54.822 6.6 11 15.2 101460 97
2001-08-14 07:14:27 51°14.714 2°54.811 6.6 12 15.2 101460 97
2001-08-14 07:14:32 51°14.73 2°54.798 6.2 11 15.2 101460 97
2001-08-14 07:14:37 51°14.747 2°54.785 6.9 11 15.2 101460 97
2001-08-14 07:14:43 51°14.768 2°54.77 6 12 15.2 101460 97
2001-08-14 07:14:47 51°14.781 2°54.759 6.3 10 15.2 101460 97
2001-08-14 07:14:53 51°14.801 2°54.743 6.2 12 15.2 101460 97
2001-08-14 07:14:57 51°14.814 2°54.731 6.1 13 15.2 101460 97
2001-08-14 07:15:03 51°14.833 2°54.712 6.3 14 15.2 101470 97
2001-08-14 07:15:07 51°14.845 2°54.699 5.8 11 15.2 101470 97
2001-08-14 07:15:13 51°14.863 2°54.679 5.9 14 15.2 101460 97
2001-08-14 07:15:17 51°14.875 2°54.664 6.1 14 15.2 101460 97
2001-08-14 07:15:23 51°14.892 2°54.642 6.1 15 15.2 101460 97
2001-08-14 07:15:27 51°14.904 2°54.627 6 12 15.2 101460 97
2001-08-14 07:15:33 51°14.921 2°54.605 6.7 15 15.2 101460 97
2001-08-14 07:15:37 51°14.932 2°54.591 6.3 16 15.2 101460 97
2001-08-14 07:15:41 51°14.944 2°54.576 6 18 15.2 101460 97
2001-08-14 07:15:47 51°14.962 2°54.555 5.4 17 15.2 101460 97
2001-08-14 07:15:52 51°14.977 2°54.538 5.8 14 15.2 101460 97
2001-08-14 07:15:57 51°14.992 2°54.522 5.2 12 15.2 101460 97
2001-08-14 07:16:03 51°15.011 2°54.501 5.5 16 15.2 101460 97
2001-08-14 07:16:07 51°15.023 2°54.488 5.5 16 15.2 101460 97
2001-08-14 07:16:13 51°15.041 2°54.468 5.3 22 15.2 101460 97
2001-08-14 07:16:17 51°15.054 2°54.455 5.2 21 15.2 101460 97
2001-08-14 07:16:22 51°15.069 2°54.438 5.1 29 15.2 101460 97
2001-08-14 07:16:27 51°15.084 2°54.421 5 18 15.2 101460 97
2001-08-14 07:16:33 51°15.102 2°54.401 4.7 24 15.2 101460 97
2001-08-14 07:16:37 51°15.115 2°54.387 5.3 21 15.2 101460 97
2001-08-14 07:16:43 51°15.133 2°54.366 5.6 14 15.2 101460 97
2001-08-14 07:16:47 51°15.145 2°54.352 5 11 15.2 101460 97
2001-08-14 07:16:53 51°15.164 2°54.332 5.5 14 15.2 101460 97
2001-08-14 07:16:57 51°15.176 2°54.318 5.2 12 15.2 101460 97
2001-08-14 07:17:03 51°15.195 2°54.298 5.3 7 15.2 101460 97
2001-08-14 07:17:07 51°15.207 2°54.284 5.3 14 15.2 101460 97
2001-08-14 07:17:13 51°15.225 2°54.263 4.8 4 15.2 101460 97
2001-08-14 07:17:17 51°15.237 2°54.249 5.1 5 15.2 101460 97
2001-08-14 07:17:23 51°15.255 2°54.228 5.1 5 15.3 101460 97
2001-08-14 07:17:27 51°15.267 2°54.213 5.7 12 15.3 101460 97
2001-08-14 07:17:32 51°15.283 2°54.196 6.4 12 15.3 101460 97
2001-08-14 07:17:37 51°15.298 2°54.179 5.9 9 15.3 101460 97
2001-08-14 07:17:43 51°15.317 2°54.158 5.6 9 15.3 101460 97
2001-08-14 07:17:47 51°15.329 2°54.145 3.3 12 15.3 101460 97
2001-08-14 07:17:52 51°15.345 2°54.128 5.4 10 15.3 101460 97
2001-08-14 07:17:57 51°15.36 2°54.111 5.5 12 15.3 101460 97
2001-08-14 07:18:01 51°15.373 2°54.097 5.7 10 15.3 101460 97
2001-08-14 07:18:07 51°15.391 2°54.077 5.8 12 15.3 101460 97
2001-08-14 07:18:11 51°15.403 2°54.063 5.2 7 15.3 101460 97
2001-08-14 07:18:17 51°15.422 2°54.042 5.3 10 15.3 101460 97
2001-08-14 07:18:21 51°15.434 2°54.028 5.3 6 15.3 101460 97
2001-08-14 07:18:27 51°15.452 2°54.007 5.5 13 15.3 101460 97
2001-08-14 07:18:31 51°15.464 2°53.993 5.5 13 15.3 101460 97
2001-08-14 07:18:37 51°15.483 2°53.972 5.6 8 15.3 101460 97
2001-08-14 07:18:41 51°15.495 2°53.958 5.1 7 15.3 101460 97
2001-08-14 07:18:47 51°15.514 2°53.938 6.3 8 15.3 101460 97
2001-08-14 07:18:51 51°15.526 2°53.924 5.6 6 15.3 101460 97
2001-08-14 07:18:57 51°15.545 2°53.904 6.4 15 15.3 101460 97
2001-08-14 07:19:01 51°15.557 2°53.891 6.3 16 15.3 101460 97
2001-08-14 07:19:07 51°15.576 2°53.87 6.6 20 15.3 101460 97
2001-08-14 07:19:11 51°15.588 2°53.856 6.4 16 15.3 101460 97
2001-08-14 07:19:17 51°15.606 2°53.835 6.4 18 15.3 101460 97
2001-08-14 07:19:21 51°15.619 2°53.821 6.3 17 15.3 101460 97
2001-08-14 07:19:27 51°15.637 2°53.8 5.8 21 15.3 101460 97
2001-08-14 07:19:31 51°15.649 2°53.786 5.9 19 15.3 101460 97
2001-08-14 07:19:37 51°15.667 2°53.764 6.6 18 15.3 101460 97
2001-08-14 07:19:41 51°15.679 2°53.75 6.7 21 15.3 101460 97
2001-08-14 07:19:47 51°15.697 2°53.729 6.1 19 15.3 101460 97
2001-08-14 07:19:51 51°15.709 2°53.715 6.6 22 15.3 101460 97
2001-08-14 07:19:57 51°15.728 2°53.694 6.3 23 15.3 101460 97
2001-08-14 07:20:02 51°15.743 2°53.678 6.4 28 15.3 101460 97
2001-08-14 07:20:07 51°15.759 2°53.661 6.1 20 15.3 101460 97
2001-08-14 07:20:11 51°15.771 2°53.648 6.5 22 15.3 101460 97
2001-08-14 07:20:17 51°15.789 2°53.627 6.1 20 15.3 101460 97
2001-08-14 07:20:21 51°15.802 2°53.614 6.3 19 15.3 101460 97
2001-08-14 07:20:27 51°15.82 2°53.594 5.8 25 15.3 101460 97
2001-08-14 07:20:32 51°15.835 2°53.576 6 20 15.3 101460 97
2001-08-14 07:20:37 51°15.851 2°53.559 5.2 20 15.3 101460 97
2001-08-14 07:20:42 51°15.866 2°53.542 5.7 17 15.3 101460 97
2001-08-14 07:20:47 51°15.881 2°53.526 5.6 18 15.3 101460 97
2001-08-14 07:20:51 51°15.894 2°53.512 5.3 16 15.3 101460 97
2001-08-14 07:20:57 51°15.912 2°53.491 5.4 15 15.3 101460 97
2001-08-14 07:21:01 51°15.924 2°53.477 5.3 17 15.3 101460 97
2001-08-14 07:21:07 51°15.942 2°53.457 5.4 17 15.3 101460 97
2001-08-14 07:21:11 51°15.955 2°53.443 5.2 17 15.3 101460 97
2001-08-14 07:21:17 51°15.973 2°53.423 4.8 18 15.3 101460 97
2001-08-14 07:21:21 51°15.986 2°53.41 4.9 15 15.3 101460 97
2001-08-14 07:21:27 51°16.005 2°53.39 5.3 15 15.3 101460 97
2001-08-14 07:21:32 51°16.02 2°53.374 5 18 15.3 101460 97
2001-08-14 07:21:37 51°16.036 2°53.358 5 18 15.3 101460 97
2001-08-14 07:21:41 51°16.049 2°53.345 5.2 15 15.3 101460 97
2001-08-14 07:21:47 51°16.068 2°53.327 4.9 20 15.3 101460 97
2001-08-14 07:21:51 51°16.081 2°53.314 5.3 11 15.3 101460 97
2001-08-14 07:21:57 51°16.1 2°53.296 5.3 14 15.3 101460 97
2001-08-14 07:22:03 51°16.119 2°53.277 5.7 13 15.3 101460 97
2001-08-14 07:22:07 51°16.132 2°53.265 6.2 21 15.3 101460 97
2001-08-14 07:22:11 51°16.145 2°53.253 5.9 15 15.3 101460 97
2001-08-14 07:22:17 51°16.165 2°53.235 4.7 9 15.3 101460 97
2001-08-14 07:22:21 51°16.178 2°53.223 4.9 9 15.3 101460 97
2001-08-14 07:22:27 51°16.197 2°53.205 5.1 9 15.3 101460 97
2001-08-14 07:22:31 51°16.21 2°53.193 4.8 6 15.3 101460 97
2001-08-14 07:22:37 51°16.23 2°53.176 4.5 6 15.3 101460 97
2001-08-14 07:22:41 51°16.243 2°53.164 4.5 6 15.3 101460 97
2001-08-14 07:22:47 51°16.263 2°53.148 4.6 9 15.3 101460 97
2001-08-14 07:22:51 51°16.277 2°53.136 4.4 12 15.3 101460 97
2001-08-14 07:22:57 51°16.297 2°53.12 4.6 9 15.3 101460 97
2001-08-14 07:23:03 51°16.317 2°53.103 4.7 3 15.3 101460 97
2001-08-14 07:23:07 51°16.33 2°53.093 5 12 15.3 101460 97
2001-08-14 07:23:11 51°16.344 2°53.082 5.1 14 15.3 101460 97
2001-08-14 07:23:17 51°16.365 2°53.067 4.9 9 15.3 101460 97
2001-08-14 07:23:21 51°16.379 2°53.057 4.5 9 15.3 101460 97
2001-08-14 07:23:27 51°16.399 2°53.042 4.2 9 15.3 101460 97
2001-08-14 07:23:31 51°16.413 2°53.033 4.7 8 15.3 101460 97
2001-08-14 07:23:37 51°16.434 2°53.018 4.5 8 15.3 101460 97
2001-08-14 07:23:43 51°16.455 2°53.004 4.3 3 15.3 101470 97
2001-08-14 07:23:47 51°16.469 2°52.994 4.9 2 15.3 101470 97
2001-08-14 07:23:51 51°16.483 2°52.984 4.4 7 15.3 101460 97
2001-08-14 07:23:57 51°16.503 2°52.969 5.7 6 15.3 101460 97
2001-08-14 07:24:01 51°16.517 2°52.958 5.3 3 15.4 101460 97
2001-08-14 07:24:07 51°16.537 2°52.943 5.6 11 15.4 101460 97
2001-08-14 07:24:11 51°16.551 2°52.932 5.7 12 15.3 101470 97
2001-08-14 07:24:17 51°16.572 2°52.916 5.4 12 15.3 101470 97
2001-08-14 07:24:21 51°16.585 2°52.905 5 6 15.3 101460 97
2001-08-14 07:24:27 51°16.605 2°52.89 5.3 12 15.3 101460 97
2001-08-14 07:24:31 51°16.619 2°52.879 5.4 13 15.4 101460 97
2001-08-14 07:24:37 51°16.639 2°52.863 5 12 15.4 101460 97
2001-08-14 07:24:43 51°16.66 2°52.847 4.6 13 15.4 101460 97
2001-08-14 07:24:47 51°16.673 2°52.836 4.9 18 15.4 101460 97
2001-08-14 07:24:51 51°16.686 2°52.824 4.7 15 15.4 101460 97
2001-08-14 07:24:57 51°16.707 2°52.808 4.4 10 15.4 101460 97
2001-08-14 07:25:01 51°16.72 2°52.797 4 7 15.4 101460 97
2001-08-14 07:25:07 51°16.74 2°52.78 3.9 3 15.4 101460 97
2001-08-14 07:25:11 51°16.753 2°52.769 4 3 15.4 101460 97
2001-08-14 07:25:17 51°16.773 2°52.752 4.7 8 15.4 101460 97
2001-08-14 07:25:23 51°16.794 2°52.736 4.3 3 15.4 101460 97
2001-08-14 07:25:27 51°16.807 2°52.725 4.5 8 15.4 101460 97
2001-08-14 07:25:31 51°16.821 2°52.714 4.4 7 15.4 101460 97
2001-08-14 07:25:37 51°16.841 2°52.698 4.2 8 15.4 101460 97
2001-08-14 07:25:41 51°16.854 2°52.688 4.4 2 15.4 101460 97
2001-08-14 07:25:47 51°16.875 2°52.672 4.4 7 15.4 101460 97
2001-08-14 07:25:53 51°16.896 2°52.657 4 6 15.4 101460 97
2001-08-14 07:25:57 51°16.909 2°52.647 4.5 7 15.4 101460 97
2001-08-14 07:26:03 51°16.93 2°52.631 4.3 9 15.4 101470 97
2001-08-14 07:26:07 51°16.944 2°52.621 4.4 12 15.4 101470 97
2001-08-14 07:26:11 51°16.958 2°52.611 4.3 6 15.4 101470 97
2001-08-14 07:26:17 51°16.979 2°52.596 4.3 5 15.4 101470 97
2001-08-14 07:26:21 51°16.992 2°52.585 3.9 8 15.4 101460 97
2001-08-14 07:26:27 51°17.013 2°52.57 3.9 3 15.4 101460 97
2001-08-14 07:26:31 51°17.027 2°52.56 4.1 6 15.4 101470 97
2001-08-14 07:26:37 51°17.048 2°52.544 3.9 10 15.4 101470 97
2001-08-14 07:26:43 51°17.068 2°52.528 4.4 12 15.4 101460 97
2001-08-14 07:26:47 51°17.082 2°52.518 3.9 8 15.4 101460 97
2001-08-14 07:26:51 51°17.096 2°52.507 4 9 15.4 101470 97
2001-08-14 07:26:57 51°17.116 2°52.491 5.5 18 15.4 101470 97
2001-08-14 07:27:03 51°17.137 2°52.475 5.2 13 15.5 101470 97
2001-08-14 07:27:07 51°17.15 2°52.464 4.8 15 15.5 101470 97
2001-08-14 07:27:11 51°17.164 2°52.454 4.7 14 15.5 101460 97
2001-08-14 07:27:17 51°17.185 2°52.439 5.5 23 15.5 101460 97
2001-08-14 07:27:21 51°17.198 2°52.428 4.9 21 15.5 101460 97
2001-08-14 07:27:27 51°17.219 2°52.411 4.6 19 15.5 101460 97
2001-08-14 07:27:31 51°17.232 2°52.399 5.3 21 15.5 101460 97
2001-08-14 07:27:37 51°17.252 2°52.381 4.4 21 15.5 101460 97
2001-08-14 07:27:43 51°17.272 2°52.363 4.6 24 15.5 101460 97
2001-08-14 07:27:47 51°17.285 2°52.351 4.5 20 15.5 101460 97
2001-08-14 07:27:51 51°17.299 2°52.34 4.1 11 15.5 101460 97
2001-08-14 07:27:57 51°17.319 2°52.322 4.3 6 15.5 101460 97
2001-08-14 07:28:01 51°17.332 2°52.31 5 10 15.5 101460 97
2001-08-14 07:28:07 51°17.352 2°52.291 5.8 22 15.5 101460 97
2001-08-14 07:28:11 51°17.365 2°52.279 5 20 15.5 101460 97
2001-08-14 07:28:17 51°17.384 2°52.26 3.8 12 15.5 101460 97
2001-08-14 07:28:23 51°17.404 2°52.241 4.1 12 15.6 101460 97
2001-08-14 07:28:27 51°17.416 2°52.227 4.5 18 15.6 101460 97
2001-08-14 07:28:31 51°17.429 2°52.214 4.7 12 15.6 101460 97
2001-08-14 07:28:37 51°17.448 2°52.193 5.2 22 15.6 101460 97
2001-08-14 07:28:41 51°17.46 2°52.179 5.3 25 15.6 101460 97
2001-08-14 07:28:47 51°17.478 2°52.157 5.2 32 15.6 101460 97
2001-08-14 07:28:51 51°17.49 2°52.142 5.7 27 15.6 101460 97
2001-08-14 07:28:57 51°17.508 2°52.119 5.9 28 15.6 101460 97
2001-08-14 07:29:01 51°17.519 2°52.103 5.3 21 15.6 101460 97
2001-08-14 07:29:07 51°17.535 2°52.079 6.1 24 15.6 101460 97
2001-08-14 07:29:11 51°17.546 2°52.062 6.3 30 15.6 101460 97
2001-08-14 07:29:17 51°17.561 2°52.035 7.4 24 15.6 101460 97
2001-08-14 07:29:23 51°17.575 2°52.007 7.2 18 15.6 101460 97
2001-08-14 07:29:27 51°17.583 2°51.989 7.3 19 15.6 101460 97
2001-08-14 07:29:31 51°17.592 2°51.969 7.4 22 15.6 101460 97
2001-08-14 07:29:37 51°17.604 2°51.94 8.6 21 15.6 101460 97
2001-08-14 07:29:41 51°17.612 2°51.92 8.8 20 15.7 101450 97
2001-08-14 07:29:47 51°17.623 2°51.89 8.4 21 15.7 101450 97
2001-08-14 07:29:51 51°17.63 2°51.87 8 26 15.7 101450 97
2001-08-14 07:29:57 51°17.641 2°51.84 7.8 25 15.7 101450 97
2001-08-14 07:30:01 51°17.647 2°51.819 8.2 21 15.7 101450 97
2001-08-14 07:30:07 51°17.657 2°51.788 8.7 22 15.7 101450 97
2001-08-14 07:30:13 51°17.667 2°51.756 8.7 20 15.7 101460 97
2001-08-14 07:30:17 51°17.673 2°51.735 7.5 22 15.7 101460 97
2001-08-14 07:30:23 51°17.682 2°51.704 7.7 19 15.7 101460 97
2001-08-14 07:30:27 51°17.688 2°51.683 8.6 24 15.7 101460 97
2001-08-14 07:30:31 51°17.693 2°51.662 8.5 23 15.7 101460 97
2001-08-14 07:30:37 51°17.702 2°51.63 8.1 21 15.7 101460 97
2001-08-14 07:30:41 51°17.707 2°51.609 8.2 22 15.7 101450 97
2001-08-14 07:30:47 51°17.715 2°51.577 7.7 27 15.7 101450 97
2001-08-14 07:30:51 51°17.72 2°51.555 8 24 15.7 101460 97
2001-08-14 07:30:57 51°17.727 2°51.523 7.4 23 15.7 101460 97
2001-08-14 07:31:01 51°17.732 2°51.501 7.5 21 15.7 101460 97
2001-08-14 07:31:07 51°17.74 2°51.468 7.1 19 15.7 101460 97
2001-08-14 07:31:13 51°17.747 2°51.436 7.4 24 15.7 101460 97
2001-08-14 07:31:17 51°17.752 2°51.414 7.5 24 15.7 101460 97
2001-08-14 07:31:23 51°17.76 2°51.382 7.3 20 15.7 101450 97
2001-08-14 07:31:27 51°17.765 2°51.36 6.4 22 15.7 101450 97
2001-08-14 07:31:31 51°17.771 2°51.339 6.7 19 15.7 101460 97
2001-08-14 07:31:37 51°17.779 2°51.306 6.8 20 15.7 101460 97
2001-08-14 07:31:41 51°17.784 2°51.285 7.2 20 15.7 101460 97
2001-08-14 07:31:47 51°17.793 2°51.252 7.7 29 15.7 101460 97
2001-08-14 07:31:53 51°17.801 2°51.22 7.9 25 15.7 101460 97
2001-08-14 07:31:57 51°17.806 2°51.198 8.3 25 15.7 101460 97
2001-08-14 07:32:01 51°17.812 2°51.177 8.7 29 15.7 101460 97
2001-08-14 07:32:07 51°17.82 2°51.145 8.2 26 15.7 101460 97
2001-08-14 07:32:13 51°17.829 2°51.113 8.4 27 15.8 101460 97
2001-08-14 07:32:17 51°17.834 2°51.091 7.6 20 15.8 101460 97
2001-08-14 07:32:23 51°17.843 2°51.059 7.4 19 15.8 101460 97
2001-08-14 07:32:27 51°17.849 2°51.038 7.6 25 15.8 101460 97
2001-08-14 07:32:31 51°17.854 2°51.016 7.3 26 15.8 101450 97
2001-08-14 07:32:37 51°17.863 2°50.984 7.9 24 15.8 101450 97
2001-08-14 07:32:41 51°17.868 2°50.962 7.2 17 15.8 101460 97
2001-08-14 07:32:47 51°17.876 2°50.93 7.4 22 15.8 101460 97
2001-08-14 07:32:53 51°17.884 2°50.898 7.6 21 15.8 101460 97
2001-08-14 07:32:57 51°17.889 2°50.876 7.3 28 15.8 101460 97
2001-08-14 07:33:03 51°17.897 2°50.844 7.3 24 15.8 101450 97
2001-08-14 07:33:07 51°17.903 2°50.822 7.9 19 15.8 101450 97
2001-08-14 07:33:13 51°17.911 2°50.79 7.5 21 15.8 101460 97
2001-08-14 07:33:17 51°17.917 2°50.768 7.8 25 15.8 101460 97
2001-08-14 07:33:23 51°17.926 2°50.736 7.3 16 15.8 101460 97
2001-08-14 07:33:27 51°17.931 2°50.715 7.9 18 15.8 101460 97
2001-08-14 07:33:32 51°17.939 2°50.689 8.1 23 15.8 101460 97
2001-08-14 07:33:37 51°17.946 2°50.662 7.3 23 15.8 101460 97
2001-08-14 07:33:41 51°17.952 2°50.641 7.6 23 15.8 101460 97
2001-08-14 07:33:47 51°17.961 2°50.609 6.9 25 15.8 101460 97
2001-08-14 07:33:51 51°17.967 2°50.588 7.7 29 15.8 101460 97
2001-08-14 07:33:57 51°17.976 2°50.556 8.1 26 15.8 101460 97
2001-08-14 07:34:03 51°17.985 2°50.524 7.6 28 15.8 101460 97
2001-08-14 07:34:07 51°17.991 2°50.503 8.2 26 15.8 101460 97
2001-08-14 07:34:13 51°17.999 2°50.471 8 25 15.8 101460 97
2001-08-14 07:34:17 51°18.005 2°50.45 7.7 20 15.8 101460 97
2001-08-14 07:34:21 51°18.01 2°50.428 7.5 23 15.8 101460 97
2001-08-14 07:34:27 51°18.018 2°50.396 8.2 24 15.8 101460 97
2001-08-14 07:34:33 51°18.027 2°50.364 8.2 23 15.9 101460 97
2001-08-14 07:34:37 51°18.032 2°50.342 8.2 24 15.9 101460 97
2001-08-14 07:34:43 51°18.04 2°50.31 8.6 26 15.8 101460 97
2001-08-14 07:34:47 51°18.045 2°50.288 8.5 26 15.8 101460 97
2001-08-14 07:34:51 51°18.05 2°50.267 8.7 24 15.9 101460 97
2001-08-14 07:34:57 51°18.058 2°50.234 9.1 20 15.9 101460 97
2001-08-14 07:35:01 51°18.063 2°50.213 8.7 20 15.8 101460 97
2001-08-14 07:35:07 51°18.071 2°50.18 8.1 20 15.8 101460 97
2001-08-14 07:35:11 51°18.076 2°50.158 8.1 24 15.9 101460 97
2001-08-14 07:35:17 51°18.084 2°50.126 8.1 22 15.9 101460 97
2001-08-14 07:35:23 51°18.092 2°50.093 7.8 19 15.9 101460 97
2001-08-14 07:35:27 51°18.097 2°50.072 8.1 20 15.9 101460 97
2001-08-14 07:35:31 51°18.102 2°50.051 7.7 18 15.9 101460 97
2001-08-14 07:35:37 51°18.111 2°50.018 7.9 26 15.9 101460 97
2001-08-14 07:35:43 51°18.119 2°49.986 7.8 26 15.9 101460 97
2001-08-14 07:35:47 51°18.124 2°49.964 7.8 27 15.9 101460 97
2001-08-14 07:35:51 51°18.13 2°49.943 6.8 17 15.9 101470 97
2001-08-14 07:35:57 51°18.138 2°49.911 7.7 32 15.9 101470 97
2001-08-14 07:36:01 51°18.143 2°49.889 8 32 15.9 101460 97
2001-08-14 07:36:07 51°18.15 2°49.857 7.7 20 15.9 101460 97
2001-08-14 07:36:11 51°18.156 2°49.836 7.4 27 15.9 101470 97
2001-08-14 07:36:17 51°18.164 2°49.803 8.8 29 15.9 101470 97
2001-08-14 07:36:23 51°18.173 2°49.771 8.5 26 15.9 101460 97
2001-08-14 07:36:27 51°18.178 2°49.749 9.4 27 15.9 101460 97
2001-08-14 07:36:33 51°18.186 2°49.717 9.2 32 15.9 101470 97
2001-08-14 07:36:37 51°18.192 2°49.696 9.5 33 15.9 101470 97
2001-08-14 07:36:41 51°18.198 2°49.674 9.4 34 15.9 101460 97
2001-08-14 07:36:47 51°18.206 2°49.642 8.6 30 15.9 101460 97
2001-08-14 07:36:51 51°18.211 2°49.62 9.1 27 15.9 101460 97
2001-08-14 07:36:57 51°18.22 2°49.588 8.5 31 15.9 101460 97
2001-08-14 07:37:03 51°18.228 2°49.556 8.7 32 15.9 101460 96
2001-08-14 07:37:07 51°18.233 2°49.534 8.1 29 15.9 101460 96
2001-08-14 07:37:11 51°18.239 2°49.513 8.5 35 15.9 101460 96
2001-08-14 07:37:17 51°18.247 2°49.48 7.8 30 15.9 101460 96
2001-08-14 07:37:21 51°18.252 2°49.459 7.4 29 15.9 101460 96
2001-08-14 07:37:27 51°18.26 2°49.427 8.3 31 15.9 101460 96
2001-08-14 07:37:31 51°18.265 2°49.405 8.1 32 15.9 101460 96
2001-08-14 07:37:37 51°18.273 2°49.373 8.8 29 15.9 101460 96
2001-08-14 07:37:43 51°18.281 2°49.34 8.1 30 15.9 101460 96
2001-08-14 07:37:47 51°18.285 2°49.319 8.2 26 15.9 101460 96
2001-08-14 07:37:51 51°18.291 2°49.297 8.5 33 15.9 101460 96
2001-08-14 07:37:57 51°18.298 2°49.265 7.5 26 15.9 101460 96
2001-08-14 07:38:03 51°18.306 2°49.232 7.7 27 15.9 101460 96
2001-08-14 07:38:07 51°18.311 2°49.21 8.2 28 15.9 101460 96
2001-08-14 07:38:11 51°18.316 2°49.189 8.4 23 15.9 101460 96
2001-08-14 07:38:17 51°18.324 2°49.157 7.8 24 15.9 101460 96
2001-08-14 07:38:21 51°18.329 2°49.136 8.2 23 15.9 101460 96
2001-08-14 07:38:27 51°18.337 2°49.104 8.2 25 15.9 101460 96
2001-08-14 07:38:31 51°18.342 2°49.082 8.2 22 16 101460 96
2001-08-14 07:38:37 51°18.35 2°49.05 7.9 26 16 101460 96
2001-08-14 07:38:43 51°18.358 2°49.018 8.2 25 16 101460 96
2001-08-14 07:38:47 51°18.364 2°48.997 7.9 23 16 101460 96
2001-08-14 07:38:51 51°18.369 2°48.975 7.3 24 16 101460 96
2001-08-14 07:38:57 51°18.377 2°48.943 8.1 24 16 101460 96
2001-08-14 07:39:01 51°18.383 2°48.922 7.9 28 16 101470 96
2001-08-14 07:39:07 51°18.391 2°48.89 8.7 28 16 101470 96
2001-08-14 07:39:11 51°18.396 2°48.868 8.9 27 16 101460 96
2001-08-14 07:39:17 51°18.405 2°48.836 9.1 21 16 101460 96
2001-08-14 07:39:23 51°18.413 2°48.804 8.8 26 16 101460 96
2001-08-14 07:39:27 51°18.418 2°48.783 8.4 23 16 101460 96
2001-08-14 07:39:31 51°18.423 2°48.762 8.3 23 16 101460 96
2001-08-14 07:39:37 51°18.43 2°48.73 8.1 22 16 101460 96
2001-08-14 07:39:41 51°18.436 2°48.708 8.4 22 16 101460 96
2001-08-14 07:39:47 51°18.444 2°48.676 8.1 23 16 101460 96
2001-08-14 07:39:53 51°18.452 2°48.644 7.9 27 16 101460 96
2001-08-14 07:39:57 51°18.458 2°48.623 8 26 16 101460 96
2001-08-14 07:40:03 51°18.466 2°48.591 8 26 16 101460 96
2001-08-14 07:40:07 51°18.472 2°48.57 8.7 23 16 101460 96
2001-08-14 07:40:11 51°18.478 2°48.549 8.6 24 16 101470 96
2001-08-14 07:40:17 51°18.486 2°48.517 9 28 16 101470 96
2001-08-14 07:40:23 51°18.495 2°48.485 9.2 24 16 101470 96
2001-08-14 07:40:27 51°18.501 2°48.464 8.8 34 16 101470 96
2001-08-14 07:40:31 51°18.507 2°48.443 9.7 32 16 101470 96
2001-08-14 07:40:37 51°18.516 2°48.411 8.6 23 16 101470 96
2001-08-14 07:40:41 51°18.521 2°48.389 8.6 22 16 101460 96
2001-08-14 07:40:47 51°18.53 2°48.357 8.4 23 16 101460 96
2001-08-14 07:40:51 51°18.536 2°48.336 8.2 23 16.1 101460 96
2001-08-14 07:40:57 51°18.545 2°48.304 8.5 26 16.1 101460 96
2001-08-14 07:41:03 51°18.554 2°48.272 8.4 23 16.1 101470 96
2001-08-14 07:41:07 51°18.56 2°48.251 7.9 26 16.1 101470 96
2001-08-14 07:41:11 51°18.565 2°48.229 8.3 26 16.1 101460 96
2001-08-14 07:41:17 51°18.575 2°48.198 8.3 25 16.1 101460 96
2001-08-14 07:41:21 51°18.581 2°48.177 7.9 28 16.1 101470 96
2001-08-14 07:41:27 51°18.59 2°48.146 8.4 21 16.1 101470 96
2001-08-14 07:41:31 51°18.596 2°48.125 8 25 16.1 101470 95
2001-08-14 07:41:37 51°18.605 2°48.093 8.7 24 16.1 101470 95
2001-08-14 07:41:43 51°18.614 2°48.061 8.5 23 16.1 101470 95
2001-08-14 07:41:47 51°18.62 2°48.04 8.5 23 16.1 101470 95
2001-08-14 07:41:51 51°18.626 2°48.019 9 27 16.1 101470 95
2001-08-14 07:41:57 51°18.636 2°47.987 8.4 30 16.1 101470 95
2001-08-14 07:42:01 51°18.642 2°47.966 8.1 25 16.1 101460 95
2001-08-14 07:42:07 51°18.651 2°47.935 8.2 24 16.1 101460 95
2001-08-14 07:42:11 51°18.657 2°47.914 9.2 26 16.1 101460 95
2001-08-14 07:42:17 51°18.666 2°47.883 10.3 29 16.1 101460 95
2001-08-14 07:42:23 51°18.675 2°47.851 10.2 31 16 101460 95
2001-08-14 07:42:27 51°18.682 2°47.831 9 34 16 101460 95
2001-08-14 07:42:31 51°18.688 2°47.809 9.6 30 16.1 101460 95
2001-08-14 07:42:37 51°18.697 2°47.778 8.8 30 16.1 101460 95
2001-08-14 07:42:41 51°18.703 2°47.757 8.3 26 16.1 101470 95
2001-08-14 07:42:47 51°18.713 2°47.726 9.1 31 16.1 101470 95
2001-08-14 07:42:51 51°18.719 2°47.705 8.3 34 16.1 101460 95
2001-08-14 07:42:57 51°18.728 2°47.674 8.3 30 16.1 101460 95
2001-08-14 07:43:01 51°18.734 2°47.653 8.4 31 16 101460 95
2001-08-14 07:43:07 51°18.744 2°47.622 9.6 35 16 101460 95
2001-08-14 07:43:12 51°18.752 2°47.596 8.9 32 16.1 101460 95
2001-08-14 07:43:17 51°18.76 2°47.57 8.4 33 16.1 101460 95
2001-08-14 07:43:21 51°18.766 2°47.549 8.4 33 16.1 101460 95
2001-08-14 07:43:27 51°18.776 2°47.517 8.6 31 16.1 101460 95
2001-08-14 07:43:31 51°18.782 2°47.496 8.5 32 16.1 101460 95
2001-08-14 07:43:37 51°18.791 2°47.465 7.6 26 16.1 101460 95
2001-08-14 07:43:41 51°18.796 2°47.443 7.5 29 16.1 101460 95
2001-08-14 07:43:47 51°18.804 2°47.411 7.6 23 16.1 101460 95
2001-08-14 07:43:51 51°18.81 2°47.39 7.3 24 16.1 101470 94
2001-08-14 07:43:57 51°18.818 2°47.358 8.7 31 16.1 101470 94
2001-08-14 07:44:03 51°18.825 2°47.325 7.9 28 16.1 101460 94
2001-08-14 07:44:07 51°18.831 2°47.304 8.4 31 16.1 101460 94
2001-08-14 07:44:11 51°18.836 2°47.283 8.2 30 16.1 101470 94
2001-08-14 07:44:17 51°18.844 2°47.251 8.4 30 16.1 101470 94
2001-08-14 07:44:23 51°18.851 2°47.219 7.4 26 16.1 101460 94
2001-08-14 07:44:27 51°18.857 2°47.197 8.4 31 16.1 101460 94
2001-08-14 07:44:31 51°18.862 2°47.176 8.2 26 16.1 101460 94
2001-08-14 07:44:37 51°18.87 2°47.144 10.1 28 16.1 101460 94
2001-08-14 07:44:41 51°18.875 2°47.122 9.5 29 16.1 101460 94
2001-08-14 07:44:47 51°18.882 2°47.09 9.3 25 16.1 101460 94
2001-08-14 07:44:51 51°18.887 2°47.069 9.1 26 16.1 101460 94
2001-08-14 07:44:57 51°18.895 2°47.037 9.3 27 16.1 101460 94
2001-08-14 07:45:03 51°18.903 2°47.005 9.3 26 16.1 101470 94
2001-08-14 07:45:07 51°18.907 2°46.983 8.8 28 16.1 101470 94
2001-08-14 07:45:11 51°18.913 2°46.962 9.2 31 16.1 101460 94
2001-08-14 07:45:17 51°18.92 2°46.929 8.4 18 16.1 101460 94
2001-08-14 07:45:23 51°18.928 2°46.897 8.4 23 16.2 101460 94
2001-08-14 07:45:27 51°18.933 2°46.876 8.1 22 16.2 101460 94
2001-08-14 07:45:32 51°18.939 2°46.849 9.1 21 16.2 101460 94
2001-08-14 07:45:37 51°18.946 2°46.822 8.6 26 16.2 101460 94
2001-08-14 07:45:41 51°18.951 2°46.8 8.7 28 16.2 101460 94
2001-08-14 07:45:47 51°18.959 2°46.769 9.9 28 16.2 101460 94
2001-08-14 07:45:52 51°18.966 2°46.742 8.5 22 16.2 101460 94
2001-08-14 07:45:57 51°18.973 2°46.716 8.4 27 16.2 101460 94
2001-08-14 07:46:02 51°18.98 2°46.689 8.4 26 16.2 101460 94
2001-08-14 07:46:07 51°18.987 2°46.663 9 28 16.2 101460 94
2001-08-14 07:46:13 51°18.995 2°46.631 7.9 29 16.2 101460 94
2001-08-14 07:46:17 51°19 2°46.61 9.2 34 16.2 101460 94
2001-08-14 07:46:21 51°19.005 2°46.588 9 32 16.2 101460 94
2001-08-14 07:46:27 51°19.013 2°46.555 8.8 31 16.2 101460 94
2001-08-14 07:46:32 51°19.019 2°46.528 8.2 27 16.2 101460 94
2001-08-14 07:46:37 51°19.025 2°46.5 8.4 26 16.2 101460 94
2001-08-14 07:46:41 51°19.03 2°46.479 9.4 29 16.2 101460 94
2001-08-14 07:46:47 51°19.037 2°46.446 10.2 30 16.2 101460 94
2001-08-14 07:46:53 51°19.044 2°46.413 9.6 30 16.2 101470 94
2001-08-14 07:46:57 51°19.049 2°46.391 9.9 35 16.2 101470 94
2001-08-14 07:47:03 51°19.056 2°46.359 9.4 31 16.2 101460 94
2001-08-14 07:47:07 51°19.061 2°46.338 9.2 30 16.2 101460 94
2001-08-14 07:47:11 51°19.066 2°46.316 8.9 25 16.2 101450 94
2001-08-14 07:47:17 51°19.074 2°46.284 8.3 23 16.2 101450 94
2001-08-14 07:47:21 51°19.079 2°46.262 8.7 24 16.2 101460 94
2001-08-14 07:47:27 51°19.086 2°46.23 8 26 16.2 101460 94
2001-08-14 07:47:33 51°19.094 2°46.197 8.5 33 16.2 101460 94
2001-08-14 07:47:37 51°19.099 2°46.175 8.1 34 16.2 101460 94
2001-08-14 07:47:41 51°19.104 2°46.153 9.1 34 16.2 101460 93
2001-08-14 07:47:47 51°19.111 2°46.121 8 28 16.2 101460 93
2001-08-14 07:47:51 51°19.116 2°46.099 8 23 16.2 101460 93
2001-08-14 07:47:57 51°19.123 2°46.066 8.6 23 16.2 101460 93
2001-08-14 07:48:03 51°19.13 2°46.033 7.6 20 16.2 101460 93
2001-08-14 07:48:07 51°19.135 2°46.012 8.7 24 16.2 101460 93
2001-08-14 07:48:13 51°19.142 2°45.979 8.9 26 16.2 101460 93
2001-08-14 07:48:17 51°19.147 2°45.957 9.4 19 16.2 101460 93
2001-08-14 07:48:21 51°19.153 2°45.936 9.9 29 16.2 101460 93
2001-08-14 07:48:27 51°19.16 2°45.903 9.4 25 16.2 101460 93
2001-08-14 07:48:32 51°19.167 2°45.876 9.4 22 16.3 101460 93
2001-08-14 07:48:37 51°19.173 2°45.849 8.9 24 16.3 101460 93
2001-08-14 07:48:43 51°19.182 2°45.817 9.3 24 16.3 101460 93
2001-08-14 07:48:47 51°19.187 2°45.796 8.8 27 16.3 101460 93
2001-08-14 07:48:53 51°19.195 2°45.764 8.9 26 16.3 101450 93
2001-08-14 07:48:57 51°19.201 2°45.743 8.6 28 16.3 101450 93
2001-08-14 07:49:03 51°19.209 2°45.711 8.3 25 16.3 101450 93
2001-08-14 07:49:07 51°19.214 2°45.69 8.3 26 16.3 101450 93
2001-08-14 07:49:11 51°19.219 2°45.668 8.7 25 16.3 101460 93
2001-08-14 07:49:17 51°19.226 2°45.636 9.1 25 16.3 101460 93
2001-08-14 07:49:21 51°19.23 2°45.614 10.3 32 16.3 101450 93
2001-08-14 07:49:27 51°19.237 2°45.582 9.6 33 16.3 101450 93
2001-08-14 07:49:31 51°19.242 2°45.56 9.5 34 16.3 101460 93
2001-08-14 07:49:37 51°19.249 2°45.528 8.8 32 16.3 101460 93
2001-08-14 07:49:43 51°19.256 2°45.495 10.6 31 16.3 101460 93
2001-08-14 07:49:47 51°19.261 2°45.474 10.1 31 16.3 101460 93
2001-08-14 07:49:51 51°19.266 2°45.453 10.1 29 16.3 101450 93
2001-08-14 07:49:57 51°19.273 2°45.42 9.3 33 16.3 101450 93
2001-08-14 07:50:01 51°19.278 2°45.399 9.6 33 16.3 101460 93
2001-08-14 07:50:07 51°19.286 2°45.368 8.9 31 16.3 101460 93
2001-08-14 07:50:11 51°19.291 2°45.346 9 30 16.3 101460 93
2001-08-14 07:50:17 51°19.299 2°45.314 8.4 26 16.3 101460 93
2001-08-14 07:50:23 51°19.306 2°45.283 8.7 21 16.3 101460 93
2001-08-14 07:50:27 51°19.312 2°45.262 9.1 30 16.3 101460 93
2001-08-14 07:50:31 51°19.317 2°45.241 8.5 28 16.3 101460 93
2001-08-14 07:50:37 51°19.326 2°45.21 9.2 24 16.3 101460 93
2001-08-14 07:50:41 51°19.331 2°45.19 9.5 28 16.3 101460 93
2001-08-14 07:50:47 51°19.339 2°45.158 9.5 28 16.3 101460 93
2001-08-14 07:50:51 51°19.344 2°45.138 10.1 28 16.3 101460 93
2001-08-14 07:50:57 51°19.351 2°45.106 9.2 26 16.3 101460 93
2001-08-14 07:51:03 51°19.358 2°45.075 10.1 29 16.3 101460 93
2001-08-14 07:51:07 51°19.363 2°45.054 9.5 28 16.3 101460 93
2001-08-14 07:51:11 51°19.368 2°45.033 8.8 24 16.3 101460 93
2001-08-14 07:51:17 51°19.375 2°45.001 8.9 25 16.3 101460 93
2001-08-14 07:51:21 51°19.38 2°44.98 8.5 18 16.3 101460 93
2001-08-14 07:51:27 51°19.388 2°44.948 8.6 17 16.3 101460 93
2001-08-14 07:51:31 51°19.394 2°44.927 8.2 23 16.3 101460 93
2001-08-14 07:51:37 51°19.402 2°44.896 8.2 21 16.3 101460 93
2001-08-14 07:51:41 51°19.408 2°44.875 8.6 21 16.3 101460 93
2001-08-14 07:51:47 51°19.416 2°44.843 8.8 21 16.3 101460 93
2001-08-14 07:51:52 51°19.423 2°44.817 8.9 30 16.3 101460 93
2001-08-14 07:51:57 51°19.43 2°44.791 8.1 26 16.3 101460 93
2001-08-14 07:52:03 51°19.438 2°44.759 8.3 26 16.3 101460 93
2001-08-14 07:52:07 51°19.443 2°44.738 8.4 20 16.3 101460 93
2001-08-14 07:52:13 51°19.451 2°44.706 7.9 24 16.3 101460 93
2001-08-14 07:52:17 51°19.456 2°44.685 9.2 29 16.3 101460 93
2001-08-14 07:52:21 51°19.462 2°44.664 8.5 28 16.3 101460 92
2001-08-14 07:52:27 51°19.47 2°44.633 7.8 27 16.3 101460 92
2001-08-14 07:52:31 51°19.475 2°44.612 7.7 25 16.3 101460 92
2001-08-14 07:52:37 51°19.483 2°44.58 8.5 26 16.3 101460 92
2001-08-14 07:52:41 51°19.488 2°44.559 8.4 23 16.3 101460 92
2001-08-14 07:52:47 51°19.496 2°44.527 8.3 23 16.3 101460 92
2001-08-14 07:52:51 51°19.502 2°44.506 8.3 27 16.3 101460 92
2001-08-14 07:52:57 51°19.51 2°44.474 8 24 16.3 101460 92
2001-08-14 07:53:03 51°19.518 2°44.443 7.6 24 16.3 101460 92
2001-08-14 07:53:08 51°19.525 2°44.416 7.9 23 16.3 101460 92
2001-08-14 07:53:13 51°19.532 2°44.39 7.6 28 16.3 101460 92
2001-08-14 07:53:17 51°19.537 2°44.368 7.8 22 16.3 101460 92
2001-08-14 07:53:23 51°19.545 2°44.336 8.4 25 16.3 101470 92
2001-08-14 07:53:28 51°19.551 2°44.309 8.1 26 16.3 101470 92
2001-08-14 07:53:33 51°19.558 2°44.283 8.5 32 16.3 101460 92
2001-08-14 07:53:37 51°19.563 2°44.261 8.7 31 16.3 101460 92
2001-08-14 07:53:43 51°19.571 2°44.229 9.2 28 16.3 101460 92
2001-08-14 07:53:48 51°19.577 2°44.202 9.1 28 16.3 101460 92
2001-08-14 07:53:53 51°19.583 2°44.175 9.6 29 16.2 101460 92
2001-08-14 07:53:59 51°19.59 2°44.142 9.3 29 16.2 101460 92
2001-08-14 07:54:03 51°19.594 2°44.12 9.7 25 16.3 101460 92
2001-08-14 07:54:08 51°19.6 2°44.093 9.5 27 16.3 101460 92
2001-08-14 07:54:13 51°19.605 2°44.066 10.5 32 16.3 101460 92
2001-08-14 07:54:17 51°19.61 2°44.045 9.5 31 16.3 101460 92
2001-08-14 07:54:23 51°19.617 2°44.012 9.9 34 16.3 101460 92
2001-08-14 07:54:29 51°19.625 2°43.98 8.6 36 16.3 101460 92
2001-08-14 07:54:33 51°19.63 2°43.959 9.1 33 16.3 101460 92
2001-08-14 07:54:37 51°19.636 2°43.938 8 28 16.3 101460 92
2001-08-14 07:54:43 51°19.644 2°43.905 9.5 31 16.3 101460 92
2001-08-14 07:54:48 51°19.651 2°43.879 9.7 26 16.3 101460 92
2001-08-14 07:54:53 51°19.657 2°43.852 10.6 29 16.3 101460 92
2001-08-14 07:54:57 51°19.663 2°43.831 9.6 31 16.3 101460 92
2001-08-14 07:55:03 51°19.67 2°43.798 10 34 16.3 101460 92
2001-08-14 07:55:09 51°19.678 2°43.766 9.2 31 16.3 101460 92
2001-08-14 07:55:13 51°19.683 2°43.744 10.7 32 16.3 101460 92
2001-08-14 07:55:17 51°19.688 2°43.723 9.8 33 16.3 101460 92
2001-08-14 07:55:23 51°19.695 2°43.69 10.1 35 16.3 101450 92
2001-08-14 07:55:28 51°19.702 2°43.663 9.4 34 16.3 101450 92
2001-08-14 07:55:33 51°19.708 2°43.636 9.4 31 16.3 101460 92
2001-08-14 07:55:37 51°19.713 2°43.614 9.3 30 16.3 101460 92
2001-08-14 07:55:43 51°19.721 2°43.581 9 23 16.3 101460 92
2001-08-14 07:55:48 51°19.727 2°43.554 9.9 28 16.3 101460 92
2001-08-14 07:55:53 51°19.733 2°43.527 10.1 30 16.2 101460 92
2001-08-14 07:55:57 51°19.739 2°43.506 10.9 31 16.2 101460 92
2001-08-14 07:56:03 51°19.746 2°43.473 10.9 30 16.3 101460 92
2001-08-14 07:56:08 51°19.752 2°43.446 10.9 31 16.3 101460 92
2001-08-14 07:56:13 51°19.758 2°43.418 10.8 30 16.3 101460 92
2001-08-14 07:56:17 51°19.763 2°43.396 9.5 31 16.3 101460 92
2001-08-14 07:56:23 51°19.771 2°43.364 10 33 16.3 101460 92
2001-08-14 07:56:28 51°19.777 2°43.337 9 23 16.3 101460 92
2001-08-14 07:56:33 51°19.783 2°43.31 8.6 31 16.3 101460 92
2001-08-14 07:56:37 51°19.788 2°43.288 8.4 23 16.3 101460 92
2001-08-14 07:56:43 51°19.795 2°43.255 8.2 24 16.3 101460 92
2001-08-14 07:56:48 51°19.801 2°43.228 8.8 29 16.3 101460 92
2001-08-14 07:56:53 51°19.808 2°43.2 8.9 30 16.3 101450 92
2001-08-14 07:56:57 51°19.812 2°43.179 8.5 27 16.3 101450 92
2001-08-14 07:57:03 51°19.82 2°43.146 9.5 31 16.3 101460 92
2001-08-14 07:57:08 51°19.826 2°43.119 9.1 33 16.3 101460 92
2001-08-14 07:57:13 51°19.832 2°43.091 8.1 27 16.3 101460 92
2001-08-14 07:57:18 51°19.838 2°43.064 8.2 25 16.3 101460 92
2001-08-14 07:57:23 51°19.844 2°43.037 9.7 27 16.2 101460 92
2001-08-14 07:57:27 51°19.849 2°43.015 9.3 31 16.2 101460 92
2001-08-14 07:57:33 51°19.857 2°42.982 9.5 29 16.2 101460 92
2001-08-14 07:57:38 51°19.863 2°42.955 8.3 32 16.2 101460 92
2001-08-14 07:57:43 51°19.87 2°42.927 8.2 31 16.2 101470 92
2001-08-14 07:57:49 51°19.877 2°42.894 7.9 25 16.2 101470 92
2001-08-14 07:57:53 51°19.882 2°42.873 7.9 21 16.2 101460 92
2001-08-14 07:57:59 51°19.889 2°42.84 9 21 16.2 101460 92
2001-08-14 07:58:03 51°19.894 2°42.818 10.3 28 16.2 101460 92
2001-08-14 07:58:07 51°19.899 2°42.797 10.3 28 16.2 101460 92
2001-08-14 07:58:13 51°19.906 2°42.764 9.6 28 16.2 101460 92
2001-08-14 07:58:17 51°19.91 2°42.742 9.5 31 16.2 101460 92
2001-08-14 07:58:23 51°19.918 2°42.709 9.2 25 16.2 101460 92
2001-08-14 07:58:28 51°19.923 2°42.681 9.1 25 16.2 101460 92
2001-08-14 07:58:33 51°19.929 2°42.654 9.8 29 16.2 101460 92
2001-08-14 07:58:39 51°19.936 2°42.621 9.3 27 16.2 101460 92
2001-08-14 07:58:43 51°19.94 2°42.599 10.3 31 16.2 101460 92
2001-08-14 07:58:48 51°19.946 2°42.571 9.1 29 16.2 101460 92
2001-08-14 07:58:53 51°19.951 2°42.544 9.3 36 16.2 101460 92
2001-08-14 07:58:57 51°19.956 2°42.522 9.3 24 16.2 101460 92
2001-08-14 07:59:03 51°19.963 2°42.489 9.3 29 16.2 101460 92
2001-08-14 07:59:09 51°19.97 2°42.456 10.3 25 16.2 101460 92
2001-08-14 07:59:13 51°19.975 2°42.434 10.3 30 16.2 101460 92
2001-08-14 07:59:17 51°19.98 2°42.412 9.7 34 16.2 101460 92
2001-08-14 07:59:23 51°19.987 2°42.38 9.5 34 16.2 101460 92
2001-08-14 07:59:29 51°19.995 2°42.347 9.2 32 16.2 101460 92
2001-08-14 07:59:33 51°20 2°42.325 9.3 29 16.2 101460 92
2001-08-14 07:59:37 51°20.005 2°42.304 10 32 16.2 101460 92
2001-08-14 07:59:43 51°20.012 2°42.271 9.6 31 16.2 101460 92
2001-08-14 07:59:49 51°20.019 2°42.238 10.4 27 16.2 101460 92
2001-08-14 07:59:53 51°20.023 2°42.216 9.6 31 16.2 101460 92
2001-08-14 07:59:57 51°20.027 2°42.194 9.8 35 16.2 101460 92
2001-08-14 08:00:01 51°20.031 2°42.172 9.8 29 16.2 101470 92
2001-08-14 08:00:07 51°20.038 2°42.139 9.7 31 16.2 101470 92
2001-08-14 08:00:13 51°20.044 2°42.106 10.2 32 16.2 101460 92
2001-08-14 08:00:17 51°20.049 2°42.085 9.1 30 16.2 101460 92
2001-08-14 08:00:21 51°20.054 2°42.063 9.7 27 16.2 101460 92
2001-08-14 08:00:27 51°20.061 2°42.03 9.7 30 16.2 101460 92
2001-08-14 08:00:33 51°20.067 2°41.997 9.6 34 16.2 101460 92
2001-08-14 08:00:37 51°20.072 2°41.976 10.2 29 16.2 101460 92
2001-08-14 08:00:41 51°20.076 2°41.954 10.5 27 16.2 101460 92
2001-08-14 08:00:47 51°20.083 2°41.921 9.7 31 16.2 101460 92
2001-08-14 08:00:51 51°20.087 2°41.899 9.9 34 16.2 101460 92
2001-08-14 08:00:57 51°20.094 2°41.866 9.4 28 16.2 101460 92
2001-08-14 08:01:01 51°20.099 2°41.845 8.8 29 16.2 101460 92
2001-08-14 08:01:07 51°20.106 2°41.812 9.7 28 16.2 101460 92
2001-08-14 08:01:11 51°20.111 2°41.791 10.2 28 16.2 101460 92
2001-08-14 08:01:17 51°20.118 2°41.758 8.8 28 16.2 101460 92
2001-08-14 08:01:21 51°20.123 2°41.737 9.8 34 16.2 101460 92
2001-08-14 08:01:27 51°20.131 2°41.705 9.5 34 16.2 101460 92
2001-08-14 08:01:32 51°20.138 2°41.679 9.6 30 16.2 101460 92
2001-08-14 08:01:37 51°20.145 2°41.652 9.6 36 16.2 101460 92
2001-08-14 08:01:43 51°20.154 2°41.621 9.9 37 16.2 101460 92
2001-08-14 08:01:47 51°20.161 2°41.6 8.9 34 16.2 101460 92
2001-08-14 08:01:53 51°20.17 2°41.569 8.7 29 16.2 101460 92
2001-08-14 08:01:57 51°20.176 2°41.549 8.7 34 16.2 101460 92
2001-08-14 08:02:03 51°20.185 2°41.517 8.2 27 16.2 101460 92
2001-08-14 08:02:07 51°20.191 2°41.496 8.4 29 16.2 101460 92
2001-08-14 08:02:11 51°20.196 2°41.475 8.8 31 16.1 101460 92
2001-08-14 08:02:17 51°20.205 2°41.444 9 33 16.1 101460 92
2001-08-14 08:02:23 51°20.214 2°41.412 8 25 16.2 101460 92
2001-08-14 08:02:27 51°20.219 2°41.391 9.2 31 16.2 101460 92
2001-08-14 08:02:31 51°20.224 2°41.369 8.5 31 16.2 101460 92
2001-08-14 08:02:37 51°20.232 2°41.337 8 29 16.2 101460 92
2001-08-14 08:02:43 51°20.239 2°41.304 8.7 31 16.2 101460 92
2001-08-14 08:02:47 51°20.244 2°41.283 8.5 34 16.2 101460 92
2001-08-14 08:02:51 51°20.249 2°41.261 9.4 29 16.1 101460 92
2001-08-14 08:02:57 51°20.257 2°41.229 8.5 25 16.1 101460 92
2001-08-14 08:03:03 51°20.265 2°41.198 8 28 16.1 101460 92
2001-08-14 08:03:07 51°20.27 2°41.176 8.5 25 16.1 101460 92
2001-08-14 08:03:11 51°20.275 2°41.155 8.7 27 16.2 101470 92
2001-08-14 08:03:17 51°20.283 2°41.124 9.5 35 16.2 101470 92
2001-08-14 08:03:21 51°20.289 2°41.102 8.5 26 16.1 101460 92
2001-08-14 08:03:27 51°20.297 2°41.071 8.8 32 16.1 101460 92
2001-08-14 08:03:33 51°20.305 2°41.039 8.6 32 16.2 101460 92
2001-08-14 08:03:37 51°20.311 2°41.018 10 29 16.2 101460 92
2001-08-14 08:03:43 51°20.319 2°40.987 8.8 26 16.1 101470 92
2001-08-14 08:03:47 51°20.324 2°40.966 8.8 26 16.1 101470 92
2001-08-14 08:03:53 51°20.332 2°40.934 9 24 16.2 101460 92
2001-08-14 08:03:57 51°20.337 2°40.913 8.8 23 16.2 101460 92
2001-08-14 08:04:03 51°20.345 2°40.881 9.6 28 16.1 101470 92
2001-08-14 08:04:08 51°20.351 2°40.854 9 24 16.1 101470 92
2001-08-14 08:04:13 51°20.358 2°40.827 9.9 32 16.1 101460 92
2001-08-14 08:04:17 51°20.362 2°40.806 9.8 27 16.1 101460 92
2001-08-14 08:04:23 51°20.37 2°40.774 9.3 21 16.1 101470 92
2001-08-14 08:04:29 51°20.377 2°40.742 8.6 24 16.1 101470 92
2001-08-14 08:04:33 51°20.383 2°40.721 9.1 22 16.2 101460 92
2001-08-14 08:04:38 51°20.389 2°40.694 9.7 29 16.2 101460 92
2001-08-14 08:04:43 51°20.396 2°40.668 9.1 25 16.1 101460 92
2001-08-14 08:04:48 51°20.402 2°40.641 9.8 28 16.1 101460 92
2001-08-14 08:04:53 51°20.408 2°40.614 9.2 26 16.1 101460 92
2001-08-14 08:04:57 51°20.413 2°40.593 9.2 24 16.1 101460 92
2001-08-14 08:05:03 51°20.42 2°40.56 9.1 27 16.1 101460 92
2001-08-14 08:05:08 51°20.425 2°40.533 9.1 25 16.1 101460 92
2001-08-14 08:05:13 51°20.431 2°40.506 8.7 24 16.1 101460 92
2001-08-14 08:05:18 51°20.437 2°40.479 9 26 16.1 101460 92
2001-08-14 08:05:23 51°20.442 2°40.452 8.7 25 16.1 101460 92
2001-08-14 08:05:27 51°20.447 2°40.43 7.8 20 16.1 101460 92
2001-08-14 08:05:33 51°20.454 2°40.398 8.2 22 16.1 101460 92
2001-08-14 08:05:39 51°20.461 2°40.365 8.8 30 16.1 101460 92
2001-08-14 08:05:43 51°20.465 2°40.343 9.6 30 16.1 101460 92
2001-08-14 08:05:47 51°20.47 2°40.322 8.5 34 16.1 101460 92
2001-08-14 08:05:53 51°20.478 2°40.289 8.4 29 16.1 101460 92
2001-08-14 08:05:57 51°20.483 2°40.268 8.3 30 16.1 101460 92
2001-08-14 08:06:03 51°20.49 2°40.235 7.5 26 16.1 101470 92
2001-08-14 08:06:09 51°20.496 2°40.202 8.5 28 16.1 101470 92
2001-08-14 08:06:13 51°20.501 2°40.18 8.6 27 16.1 101460 92
2001-08-14 08:06:17 51°20.505 2°40.158 8.7 28 16.1 101460 92
2001-08-14 08:06:23 51°20.512 2°40.125 7.9 23 16.1 101460 92
2001-08-14 08:06:27 51°20.516 2°40.103 7.9 28 16.1 101460 92
2001-08-14 08:06:33 51°20.523 2°40.07 8.3 28 16.1 101460 92
2001-08-14 08:06:39 51°20.53 2°40.038 9.5 30 16.1 101460 92
2001-08-14 08:06:43 51°20.535 2°40.016 9.8 32 16.1 101460 92
2001-08-14 08:06:47 51°20.54 2°39.994 9 30 16.1 101460 92
2001-08-14 08:06:53 51°20.547 2°39.961 9.1 29 16.1 101470 92
2001-08-14 08:06:57 51°20.552 2°39.94 9.1 27 16.1 101470 92
2001-08-14 08:07:03 51°20.56 2°39.907 9.8 29 16.1 101460 92
2001-08-14 08:07:09 51°20.567 2°39.875 8.8 30 16.1 101460 92
2001-08-14 08:07:13 51°20.573 2°39.853 9.5 29 16.2 101460 92
2001-08-14 08:07:19 51°20.58 2°39.821 9 29 16.2 101460 92
2001-08-14 08:07:23 51°20.586 2°39.799 7.9 25 16.2 101460 92
2001-08-14 08:07:27 51°20.59 2°39.777 8.2 23 16.2 101460 92
2001-08-14 08:07:33 51°20.597 2°39.744 8.4 22 16.2 101460 92
2001-08-14 08:07:39 51°20.604 2°39.711 9.1 21 16.2 101460 92
2001-08-14 08:07:43 51°20.608 2°39.689 9.4 22 16.2 101460 92
2001-08-14 08:07:49 51°20.614 2°39.656 9.5 30 16.2 101460 92
2001-08-14 08:07:53 51°20.618 2°39.634 9.5 28 16.2 101460 92
2001-08-14 08:07:58 51°20.623 2°39.606 9.5 34 16.2 101460 92
2001-08-14 08:08:03 51°20.628 2°39.578 10.1 34 16.1 101460 92
2001-08-14 08:08:08 51°20.633 2°39.55 8.8 29 16.1 101460 92
2001-08-14 08:08:13 51°20.637 2°39.522 9.7 30 16.2 101460 92
2001-08-14 08:08:17 51°20.641 2°39.5 9.8 32 16.2 101460 92
2001-08-14 08:08:23 51°20.647 2°39.467 9.8 31 16.2 101460 92
2001-08-14 08:08:29 51°20.652 2°39.434 8.3 24 16.2 101460 92
2001-08-14 08:08:33 51°20.656 2°39.411 9.1 30 16.2 101460 93
2001-08-14 08:08:38 51°20.66 2°39.384 9.7 27 16.2 101460 93
2001-08-14 08:08:43 51°20.664 2°39.356 10.4 33 16.2 101460 93
2001-08-14 08:08:47 51°20.668 2°39.334 10.3 28 16.2 101460 93
2001-08-14 08:08:53 51°20.673 2°39.3 10.3 31 16.2 101460 93
2001-08-14 08:08:59 51°20.679 2°39.267 9.2 32 16.2 101460 93
2001-08-14 08:09:03 51°20.683 2°39.245 9.3 26 16.2 101460 93
2001-08-14 08:09:07 51°20.686 2°39.223 9.5 29 16.2 101460 93
2001-08-14 08:09:13 51°20.692 2°39.189 9.4 27 16.2 101460 93
2001-08-14 08:09:17 51°20.695 2°39.167 9.4 28 16.2 101460 93